Time;durP1;ratioP1;P1;durP2;ratioP2;P2;SDS_P1;SDS_P2;PMS_P1;PMS_P2;Temp;Humidity;BMP_temperature;BMP_pressure;BME280_temperature;BME280_humidity;BME280_pressure;Samples;Min_cycle;Max_cycle;Signal;HPM_P1;HPM_P2
2022/10/13 00:00:25;;;;;;;4.28;3.22;;;11.70;71.70;;;;;;5027840;28;20038;-59
2022/10/13 00:02:50;;;;;;;4.95;3.20;;;11.70;71.80;;;;;;5024890;28;20461;-59
2022/10/13 00:05:16;;;;;;;5.03;3.47;;;11.70;71.80;;;;;;5030511;28;20025;-59
2022/10/13 00:07:42;;;;;;;5.05;3.53;;;11.70;71.90;;;;;;5030989;28;20392;-59
2022/10/13 00:10:08;;;;;;;5.90;3.88;;;11.60;72.00;;;;;;5028959;28;20037;-57
2022/10/13 00:12:35;;;;;;;4.80;3.40;;;11.60;72.00;;;;;;5043166;28;20519;-59
2022/10/13 00:15:01;;;;;;;4.35;3.17;;;11.60;72.10;;;;;;5031118;28;20404;-59
2022/10/13 00:17:27;;;;;;;4.85;3.40;;;11.60;72.10;;;;;;5031382;28;20080;-59
2022/10/13 00:19:52;;;;;;;4.10;3.00;;;11.60;72.10;;;;;;5030983;28;20022;-60
2022/10/13 00:22:18;;;;;;;4.90;3.00;;;11.60;72.20;;;;;;5035081;28;20079;-58
2022/10/13 00:24:48;;;;;;;4.35;3.22;;;11.50;72.20;;;;;;5030667;28;20018;-59
2022/10/13 00:27:14;;;;;;;3.90;3.00;;;11.60;72.20;;;;;;5030472;28;20032;-59
2022/10/13 00:29:40;;;;;;;4.55;3.20;;;11.60;72.20;;;;;;5030440;28;20025;-59
2022/10/13 00:32:05;;;;;;;6.13;3.60;;;11.60;72.20;;;;;;5035524;28;20059;-59
2022/10/13 00:34:31;;;;;;;4.63;3.13;;;11.50;72.10;;;;;;5049099;28;20025;-59
2022/10/13 00:36:57;;;;;;;4.65;3.47;;;11.50;72.10;;;;;;5050302;28;20236;-59
2022/10/13 00:39:22;;;;;;;4.47;3.08;;;11.60;72.20;;;;;;5050053;28;20127;-60
2022/10/13 00:41:48;;;;;;;3.97;3.30;;;11.50;72.10;;;;;;5048733;28;20032;-60
2022/10/13 00:44:51;;;;;;;3.60;3.10;;;11.60;72.10;;;;;;5050256;28;20423;-59
2022/10/13 00:47:17;;;;;;;3.80;2.75;;;11.50;72.10;;;;;;5050086;28;20108;-59
2022/10/13 00:49:43;;;;;;;5.45;3.03;;;11.50;72.20;;;;;;5049445;28;20032;-59
2022/10/13 00:52:09;;;;;;;4.55;3.22;;;11.50;72.20;;;;;;5048402;28;20040;-60
2022/10/13 00:54:35;;;;;;;4.82;3.20;;;11.50;72.30;;;;;;5062357;28;20037;-60
2022/10/13 00:57:03;;;;;;;3.88;3.00;;;11.50;72.30;;;;;;5049772;28;20025;-59
2022/10/13 00:59:29;;;;;;;3.85;2.80;;;11.40;72.20;;;;;;5049242;28;20431;-59
2022/10/13 01:01:56;;;;;;;4.28;3.10;;;11.50;72.30;;;;;;5058745;28;20025;-57
2022/10/13 01:04:26;;;;;;;4.70;2.97;;;11.50;72.20;;;;;;5047963;28;20021;-59
2022/10/13 01:06:53;;;;;;;6.00;3.33;;;11.50;72.20;;;;;;5044140;28;20435;-60
2022/10/13 01:09:19;;;;;;;3.35;2.70;;;11.50;72.20;;;;;;5048930;28;20108;-59
2022/10/13 01:12:00;;;;;;;3.83;3.10;;;11.50;72.20;;;;;;5052687;28;20108;-59
2022/10/13 01:14:43;;;;;;;3.50;3.17;;;11.50;72.30;;;;;;5049401;28;20033;-58
2022/10/13 01:17:27;;;;;;;3.70;2.75;;;11.50;72.20;;;;;;5050182;28;20032;-60
2022/10/13 01:20:12;;;;;;;4.03;3.03;;;11.50;72.20;;;;;;5049694;28;20365;-60
2022/10/13 01:23:01;;;;;;;4.50;2.75;;;11.40;72.20;;;;;;5049692;28;20423;-59
2022/10/13 01:25:27;;;;;;;4.32;3.40;;;11.40;72.30;;;;;;5053494;28;20054;-59
2022/10/13 01:27:58;;;;;;;3.83;2.88;;;11.50;72.30;;;;;;5064351;28;20078;-59
2022/10/13 01:30:24;;;;;;;3.78;2.80;;;11.40;72.40;;;;;;5052089;28;20033;-59
2022/10/13 01:33:03;;;;;;;4.70;2.78;;;11.40;72.20;;;;;;5042626;28;20025;-59
2022/10/13 01:35:38;;;;;;;3.92;2.83;;;11.40;72.40;;;;;;5032832;28;20037;-60
2022/10/13 01:38:24;;;;;;;4.38;3.60;;;11.40;72.40;;;;;;5033285;28;20087;-59
2022/10/13 01:40:58;;;;;;;6.18;3.47;;;11.40;72.40;;;;;;5031886;28;20049;-58
2022/10/13 01:44:05;;;;;;;5.47;3.42;;;11.40;72.60;;;;;;5043070;28;20032;-60
2022/10/13 01:46:36;;;;;;;4.40;3.35;;;11.40;72.60;;;;;;5027193;28;20041;-60
2022/10/13 01:49:10;;;;;;;4.18;3.42;;;11.40;72.70;;;;;;5041909;28;20025;-58
2022/10/13 01:51:37;;;;;;;4.65;3.05;;;11.40;72.70;;;;;;5036696;28;20029;-58
2022/10/13 01:54:03;;;;;;;5.35;3.70;;;11.40;72.60;;;;;;5043331;28;20033;-60
2022/10/13 01:56:28;;;;;;;3.80;3.28;;;11.30;72.60;;;;;;5036664;28;20040;-59
2022/10/13 01:58:56;;;;;;;4.75;3.33;;;11.30;72.70;;;;;;5032386;28;20060;-60
2022/10/13 02:01:27;;;;;;;4.50;3.25;;;11.30;72.70;;;;;;5043571;28;20468;-60
2022/10/13 02:04:34;;;;;;;3.97;3.15;;;11.30;72.80;;;;;;5036839;28;20025;-60
2022/10/13 02:07:28;;;;;;;5.05;3.53;;;11.30;72.70;;;;;;5006163;28;20056;-60
2022/10/13 02:10:10;;;;;;;3.70;3.08;;;11.30;72.70;;;;;;5032232;28;20064;-59
2022/10/13 02:12:43;;;;;;;4.03;3.10;;;11.30;72.70;;;;;;5033101;28;20025;-59
2022/10/13 02:15:12;;;;;;;3.88;3.22;;;11.30;72.80;;;;;;5033098;28;20056;-59
2022/10/13 02:17:40;;;;;;;5.22;2.97;;;11.30;72.90;;;;;;5032511;28;20090;-58
2022/10/13 02:20:07;;;;;;;5.93;3.88;;;11.30;73.00;;;;;;5031881;28;20499;-59
2022/10/13 02:22:39;;;;;;;6.20;3.63;;;11.30;73.00;;;;;;5033925;28;20044;-59
2022/10/13 02:25:06;;;;;;;4.18;3.17;;;11.30;73.10;;;;;;5032996;28;20045;-59
2022/10/13 02:27:32;;;;;;;4.63;3.10;;;11.20;73.00;;;;;;5043429;28;20099;-59
2022/10/13 02:29:58;;;;;;;4.97;3.25;;;11.20;73.20;;;;;;5032096;28;20064;-59
2022/10/13 02:32:23;;;;;;;5.50;3.72;;;11.20;73.20;;;;;;5035395;28;20563;-60
2022/10/13 02:34:50;;;;;;;5.55;3.47;;;11.20;73.30;;;;;;5029147;28;20108;-59
2022/10/13 02:37:16;;;;;;;5.40;3.63;;;11.20;73.30;;;;;;5032218;28;20061;-59
2022/10/13 02:39:41;;;;;;;5.32;3.65;;;11.10;73.20;;;;;;5031227;28;20494;-59
2022/10/13 02:42:07;;;;;;;5.82;4.00;;;11.10;73.20;;;;;;5031916;28;20065;-59
2022/10/13 02:44:33;;;;;;;5.00;3.20;;;11.10;73.20;;;;;;5032058;28;20022;-59
2022/10/13 02:46:59;;;;;;;4.53;3.13;;;11.10;73.10;;;;;;5032157;28;20035;-60
2022/10/13 02:49:25;;;;;;;5.15;3.38;;;11.10;73.10;;;;;;5033792;28;20037;-60
2022/10/13 02:51:52;;;;;;;5.65;3.17;;;11.00;73.20;;;;;;5031928;28;20063;-60
2022/10/13 02:54:18;;;;;;;5.20;3.45;;;11.10;73.30;;;;;;5031995;28;20025;-58
2022/10/13 02:56:43;;;;;;;4.90;3.38;;;11.00;73.10;;;;;;5032067;28;20037;-59
2022/10/13 02:59:09;;;;;;;6.68;3.58;;;11.10;73.20;;;;;;5031768;28;20480;-60
2022/10/13 03:01:40;;;;;;;3.47;3.10;;;11.10;73.30;;;;;;5038920;28;20411;-60
2022/10/13 03:04:06;;;;;;;4.78;3.30;;;11.00;73.30;;;;;;5031879;28;20033;-58
2022/10/13 03:06:32;;;;;;;4.55;3.60;;;11.00;73.30;;;;;;5020432;28;20170;-60
2022/10/13 03:08:58;;;;;;;4.63;3.72;;;11.00;73.30;;;;;;5030557;28;20109;-60
2022/10/13 03:11:23;;;;;;;5.32;4.00;;;11.00;73.50;;;;;;5031816;28;20491;-59
2022/10/13 03:13:49;;;;;;;8.25;4.10;;;11.00;73.50;;;;;;5031581;28;20018;-59
2022/10/13 03:16:15;;;;;;;5.45;3.30;;;11.00;73.50;;;;;;5031641;28;20120;-60
2022/10/13 03:18:41;;;;;;;6.47;4.32;;;11.00;73.60;;;;;;5030027;28;20380;-59
2022/10/13 03:21:06;;;;;;;6.07;4.00;;;11.00;73.60;;;;;;5035057;28;20125;-60
2022/10/13 03:23:32;;;;;;;5.03;3.50;;;11.00;74.40;;;;;;5030231;28;20090;-60
2022/10/13 03:25:58;;;;;;;4.85;3.72;;;10.90;73.70;;;;;;5031508;28;20546;-59
2022/10/13 03:28:24;;;;;;;4.68;3.28;;;10.90;73.80;;;;;;5031531;28;20036;-59
2022/10/13 03:30:50;;;;;;;6.40;3.97;;;10.90;73.90;;;;;;5034131;28;20124;-59
2022/10/13 03:33:15;;;;;;;5.18;3.50;;;10.90;73.90;;;;;;5050964;28;20032;-59
2022/10/13 03:35:41;;;;;;;6.15;3.60;;;10.90;74.00;;;;;;5050835;28;20033;-58
2022/10/13 03:38:07;;;;;;;5.88;3.40;;;10.90;74.00;;;;;;5050469;28;20036;-60
2022/10/13 03:40:35;;;;;;;4.75;3.35;;;10.90;74.00;;;;;;5049448;28;20442;-60
2022/10/13 03:43:00;;;;;;;5.00;3.35;;;10.80;74.00;;;;;;5051898;28;20025;-59
2022/10/13 03:45:26;;;;;;;5.13;3.25;;;10.80;74.00;;;;;;5050373;28;20032;-59
2022/10/13 03:47:52;;;;;;;5.47;3.28;;;10.80;74.00;;;;;;5050341;28;20028;-60
2022/10/13 03:50:17;;;;;;;3.78;3.15;;;10.80;74.00;;;;;;5050494;28;20048;-59
2022/10/13 03:52:43;;;;;;;4.07;3.28;;;10.80;74.00;;;;;;5050626;28;20055;-60
2022/10/13 03:55:09;;;;;;;5.07;3.78;;;10.80;74.10;;;;;;5050720;28;20025;-59
2022/10/13 03:57:34;;;;;;;4.93;3.40;;;10.80;74.00;;;;;;5049819;28;20036;-59
2022/10/13 04:00:00;;;;;;;5.15;3.42;;;10.80;74.10;;;;;;5049654;28;20047;-60
2022/10/13 04:02:26;;;;;;;5.40;3.45;;;10.80;74.10;;;;;;5062683;28;20013;-60
2022/10/13 04:04:52;;;;;;;6.03;3.90;;;10.80;74.10;;;;;;5049975;28;20067;-59
2022/10/13 04:07:17;;;;;;;4.70;3.50;;;10.80;74.20;;;;;;5050826;28;20032;-59
2022/10/13 04:09:43;;;;;;;5.05;3.40;;;10.70;74.20;;;;;;5049973;28;20468;-58
2022/10/13 04:12:08;;;;;;;4.05;3.25;;;10.70;74.30;;;;;;5051095;28;20170;-60
2022/10/13 04:14:34;;;;;;;4.70;3.22;;;10.70;74.40;;;;;;5049534;28;20036;-59
2022/10/13 04:17:00;;;;;;;5.07;3.60;;;10.70;74.40;;;;;;5050346;28;20033;-59
2022/10/13 04:19:26;;;;;;;4.30;3.30;;;10.80;74.50;;;;;;5049314;28;20033;-60
2022/10/13 04:21:51;;;;;;;5.07;3.35;;;10.80;74.50;;;;;;5049608;28;20021;-60
2022/10/13 04:24:17;;;;;;;5.15;3.60;;;10.80;74.60;;;;;;5050677;28;20365;-59
2022/10/13 04:26:45;;;;;;;4.05;3.60;;;10.80;74.50;;;;;;5049020;28;20060;-59
2022/10/13 04:29:11;;;;;;;4.53;3.50;;;10.80;74.60;;;;;;5049207;28;20021;-59
2022/10/13 04:31:38;;;;;;;4.72;3.33;;;10.80;74.60;;;;;;5049169;28;20427;-60
2022/10/13 04:34:04;;;;;;;6.05;3.70;;;10.80;74.60;;;;;;5026725;28;20506;-59
2022/10/13 04:36:30;;;;;;;4.93;3.55;;;10.80;74.70;;;;;;5049975;28;20095;-59
2022/10/13 04:38:56;;;;;;;4.60;3.42;;;10.80;74.70;;;;;;5051455;28;20391;-59
2022/10/13 04:41:22;;;;;;;4.25;3.33;;;10.80;74.70;;;;;;5049084;28;20468;-59
2022/10/13 04:43:49;;;;;;;5.05;3.20;;;10.80;74.70;;;;;;5043371;28;20029;-59
2022/10/13 04:46:18;;;;;;;5.00;3.28;;;10.90;74.80;;;;;;5037983;28;20029;-59
2022/10/13 04:48:44;;;;;;;5.60;3.45;;;10.80;74.70;;;;;;5037261;28;20037;-59
2022/10/13 04:51:13;;;;;;;4.82;3.80;;;10.80;74.90;;;;;;5050358;28;20139;-60
2022/10/13 04:53:39;;;;;;;4.68;3.15;;;10.80;74.90;;;;;;5049788;28;20028;-59
2022/10/13 04:56:07;;;;;;;5.35;3.58;;;10.90;74.90;;;;;;5050285;28;20041;-59
2022/10/13 04:58:34;;;;;;;5.35;3.50;;;10.90;75.00;;;;;;5045715;28;20036;-58
2022/10/13 05:01:01;;;;;;;5.78;3.95;;;10.90;75.00;;;;;;5048081;28;20377;-59
2022/10/13 05:03:27;;;;;;;7.00;3.75;;;11.00;75.00;;;;;;5044757;28;20055;-59
2022/10/13 05:05:52;;;;;;;5.40;3.75;;;11.00;75.10;;;;;;5052307;28;20021;-60
2022/10/13 05:08:18;;;;;;;3.60;3.13;;;11.00;75.00;;;;;;5051715;28;20086;-59
2022/10/13 05:11:01;;;;;;;6.13;3.53;;;11.10;75.20;;;;;;5048372;28;20104;-59
2022/10/13 05:13:27;;;;;;;5.25;3.95;;;11.10;75.20;;;;;;5054084;28;20032;-60
2022/10/13 05:15:53;;;;;;;5.35;3.78;;;11.20;75.30;;;;;;5063100;28;20415;-59
2022/10/13 05:18:19;;;;;;;6.22;3.90;;;11.20;75.30;;;;;;5053302;28;20036;-59
2022/10/13 05:20:45;;;;;;;5.85;4.07;;;11.30;75.30;;;;;;5049058;28;20040;-58
2022/10/13 05:23:12;;;;;;;4.70;3.55;;;11.30;75.20;;;;;;5049035;28;20029;-57
2022/10/13 05:25:38;;;;;;;5.22;3.70;;;11.40;75.10;;;;;;5051025;28;20033;-57
2022/10/13 05:28:04;;;;;;;7.13;4.43;;;11.50;75.10;;;;;;5048041;28;20100;-57
2022/10/13 05:30:31;;;;;;;5.32;3.90;;;11.60;75.10;;;;;;5048734;28;20029;-57
2022/10/13 05:32:57;;;;;;;6.45;4.40;;;11.60;74.90;;;;;;5053067;28;20470;-57
2022/10/13 05:35:23;;;;;;;5.82;4.05;;;11.60;74.70;;;;;;5054670;28;20064;-56
2022/10/13 05:37:49;;;;;;;7.00;3.75;;;11.70;74.70;;;;;;5051324;28;20029;-57
2022/10/13 05:40:14;;;;;;;4.78;3.90;;;11.70;74.60;;;;;;5049255;28;20094;-57
2022/10/13 05:42:40;;;;;;;6.25;3.72;;;11.70;74.60;;;;;;5050242;28;20024;-57
2022/10/13 05:45:09;;;;;;;5.10;3.92;;;11.80;74.50;;;;;;5047197;28;20021;-58
2022/10/13 05:47:35;;;;;;;4.85;3.72;;;11.80;74.40;;;;;;5045162;28;20107;-57
2022/10/13 05:50:00;;;;;;;5.32;3.80;;;11.80;74.40;;;;;;5047693;28;20567;-57
2022/10/13 05:52:27;;;;;;;4.78;3.60;;;11.90;74.40;;;;;;5045665;28;20041;-58
2022/10/13 05:54:57;;;;;;;4.60;3.45;;;11.90;74.30;;;;;;5042064;28;20087;-57
2022/10/13 05:57:27;;;;;;;6.72;3.28;;;12.00;74.30;;;;;;5030158;28;20036;-57
2022/10/13 06:00:03;;;;;;;5.05;3.60;;;12.00;74.10;;;;;;5048318;28;20033;-57
2022/10/13 06:02:35;;;;;;;7.05;4.05;;;12.00;74.00;;;;;;5040773;28;20104;-57
2022/10/13 06:05:02;;;;;;;4.93;3.85;;;12.00;74.10;;;;;;5049994;28;20064;-58
2022/10/13 06:07:28;;;;;;;5.78;4.00;;;12.10;74.00;;;;;;5041627;28;20029;-59
2022/10/13 06:09:55;;;;;;;6.35;4.10;;;12.10;74.00;;;;;;5045135;28;20495;-57
2022/10/13 06:12:21;;;;;;;5.15;3.70;;;12.10;74.00;;;;;;5042001;28;20508;-58
2022/10/13 06:14:47;;;;;;;6.47;3.75;;;12.20;74.00;;;;;;5036457;28;20037;-59
2022/10/13 06:17:13;;;;;;;4.85;3.72;;;12.20;74.00;;;;;;5035233;28;20676;-58
2022/10/13 06:19:39;;;;;;;5.90;3.92;;;12.20;73.90;;;;;;5038006;28;20047;-57
2022/10/13 06:22:04;;;;;;;6.38;4.13;;;12.20;73.90;;;;;;5043766;28;20075;-57
2022/10/13 06:24:30;;;;;;;6.25;4.43;;;12.20;73.90;;;;;;5032989;28;20448;-57
2022/10/13 06:26:56;;;;;;;7.55;4.47;;;12.20;74.00;;;;;;5038166;28;20646;-58
2022/10/13 06:29:23;;;;;;;5.68;4.15;;;12.20;73.90;;;;;;5030067;28;20048;-58
2022/10/13 06:31:48;;;;;;;5.60;4.28;;;12.20;73.90;;;;;;5037037;28;20449;-57
2022/10/13 06:34:14;;;;;;;6.20;3.95;;;12.30;73.90;;;;;;5041685;28;20071;-58
2022/10/13 06:36:41;;;;;;;5.53;3.72;;;12.30;73.90;;;;;;5035403;28;20036;-60
2022/10/13 06:39:07;;;;;;;4.82;4.07;;;12.30;73.90;;;;;;5040931;28;20036;-58
2022/10/13 06:41:32;;;;;;;6.85;4.07;;;12.40;74.00;;;;;;5028457;28;20032;-61
2022/10/13 06:43:58;;;;;;;5.80;4.10;;;12.40;73.90;;;;;;5029907;28;20029;-60
2022/10/13 06:46:24;;;;;;;6.50;4.13;;;12.50;73.90;;;;;;5034207;28;20171;-59
2022/10/13 06:48:51;;;;;;;6.18;4.28;;;12.50;73.80;;;;;;5026558;28;20057;-58
2022/10/13 06:51:17;;;;;;;5.63;4.13;;;12.50;73.80;;;;;;5033252;28;20039;-59
2022/10/13 06:53:43;;;;;;;6.22;4.20;;;12.50;73.80;;;;;;5037925;28;20021;-59
2022/10/13 06:56:09;;;;;;;5.55;3.83;;;12.60;73.90;;;;;;5026550;28;20817;-59
2022/10/13 06:58:35;;;;;;;5.25;3.88;;;12.60;73.90;;;;;;5030527;28;20040;-57
2022/10/13 07:01:01;;;;;;;5.00;3.90;;;12.70;73.90;;;;;;5030945;28;20033;-59
2022/10/13 07:03:27;;;;;;;5.47;3.83;;;12.70;74.00;;;;;;5032547;28;20954;-59
2022/10/13 07:05:53;;;;;;;6.38;4.00;;;12.80;73.90;;;;;;5032619;28;20846;-58
2022/10/13 07:08:19;;;;;;;4.53;3.35;;;12.90;73.80;;;;;;5031524;28;20059;-59
2022/10/13 07:10:45;;;;;;;4.57;3.63;;;13.00;73.70;;;;;;5030097;28;20041;-58
2022/10/13 07:13:11;;;;;;;5.78;3.55;;;13.10;73.50;;;;;;5028627;28;20032;-60
2022/10/13 07:15:38;;;;;;;5.47;3.80;;;13.20;73.40;;;;;;5030900;28;20041;-56
2022/10/13 07:18:04;;;;;;;6.30;3.63;;;13.20;73.40;;;;;;5028351;28;20510;-58
2022/10/13 07:20:30;;;;;;;7.78;4.10;;;13.30;73.20;;;;;;5034558;28;20028;-57
2022/10/13 07:22:56;;;;;;;5.63;4.22;;;13.40;73.10;;;;;;5036804;28;20500;-58
2022/10/13 07:25:21;;;;;;;6.07;4.38;;;13.40;72.90;;;;;;5025262;28;20092;-59
2022/10/13 07:27:47;;;;;;;5.88;4.18;;;13.40;72.80;;;;;;5027736;28;20727;-57
2022/10/13 07:30:13;;;;;;;7.25;3.80;;;13.50;72.80;;;;;;5025327;28;20032;-59
2022/10/13 07:32:41;;;;;;;4.65;3.50;;;13.50;72.80;;;;;;5025889;28;20098;-58
2022/10/13 07:35:08;;;;;;;5.50;3.65;;;13.60;72.90;;;;;;5021267;28;20385;-59
2022/10/13 07:37:34;;;;;;;4.32;3.67;;;13.60;72.80;;;;;;5027211;28;20057;-58
2022/10/13 07:40:00;;;;;;;5.18;3.90;;;13.60;72.60;;;;;;5021265;28;20107;-60
2022/10/13 07:42:26;;;;;;;5.93;4.38;;;13.70;72.60;;;;;;5022846;28;20127;-57
2022/10/13 07:44:52;;;;;;;4.95;4.00;;;13.70;72.40;;;;;;5020967;28;20117;-59
2022/10/13 07:47:17;;;;;;;4.28;3.42;;;13.70;72.30;;;;;;5029132;28;20025;-59
2022/10/13 07:49:43;;;;;;;5.93;3.60;;;13.80;72.30;;;;;;5026267;28;20038;-58
2022/10/13 07:52:09;;;;;;;5.82;3.88;;;13.80;72.20;;;;;;5024946;28;20617;-60
2022/10/13 07:54:34;;;;;;;6.10;3.60;;;13.80;72.20;;;;;;5023424;28;20060;-60
2022/10/13 07:57:00;;;;;;;5.68;3.28;;;13.80;72.10;;;;;;5020578;28;20090;-60
2022/10/13 07:59:26;;;;;;;4.63;3.28;;;13.70;72.00;;;;;;5026219;28;20082;-58
2022/10/13 08:01:51;;;;;;;4.82;3.65;;;13.70;71.90;;;;;;5022066;28;20676;-58
2022/10/13 08:04:17;;;;;;;3.78;3.28;;;13.60;71.90;;;;;;5018879;28;21062;-60
2022/10/13 08:06:43;;;;;;;5.57;3.22;;;13.60;72.10;;;;;;5027716;28;20115;-60
2022/10/13 08:09:09;;;;;;;3.92;3.25;;;13.50;72.10;;;;;;5028153;28;20025;-58
2022/10/13 08:11:35;;;;;;;4.28;3.38;;;13.50;72.20;;;;;;5019744;28;20028;-58
2022/10/13 08:14:00;;;;;;;6.07;3.85;;;13.50;72.30;;;;;;5018834;28;20049;-60
2022/10/13 08:16:27;;;;;;;6.85;3.75;;;13.40;72.40;;;;;;5029380;28;20447;-58
2022/10/13 08:18:53;;;;;;;4.47;3.30;;;13.40;72.30;;;;;;5023176;28;20028;-58
2022/10/13 08:21:21;;;;;;;5.25;3.47;;;13.40;72.30;;;;;;5021085;28;20075;-60
2022/10/13 08:23:48;;;;;;;5.30;3.75;;;13.30;72.30;;;;;;5020940;28;20029;-60
2022/10/13 08:26:18;;;;;;;3.60;2.95;;;13.30;72.40;;;;;;5020204;28;20035;-60
2022/10/13 08:28:43;;;;;;;5.20;3.35;;;13.30;72.30;;;;;;5013234;28;20029;-60
2022/10/13 08:31:09;;;;;;;4.95;3.42;;;13.30;72.30;;;;;;5016693;28;20628;-60
2022/10/13 08:33:35;;;;;;;5.38;3.78;;;13.30;72.30;;;;;;5022346;28;20049;-60
2022/10/13 08:36:02;;;;;;;6.70;3.75;;;13.30;72.30;;;;;;5023894;28;20033;-60
2022/10/13 08:38:27;;;;;;;5.45;3.33;;;13.30;72.20;;;;;;5000013;28;20049;-58
2022/10/13 08:40:53;;;;;;;4.15;3.17;;;13.30;72.20;;;;;;5023489;28;20035;-59
2022/10/13 08:43:22;;;;;;;4.50;3.00;;;13.30;72.30;;;;;;5022650;28;20053;-59
2022/10/13 08:45:56;;;;;;;5.10;3.63;;;13.30;72.90;;;;;;5029353;28;20028;-58
2022/10/13 08:48:25;;;;;;;3.88;3.10;;;13.20;72.10;;;;;;5030064;28;20468;-59
2022/10/13 08:50:58;;;;;;;4.00;3.08;;;13.30;72.20;;;;;;5022314;28;20021;-60
2022/10/13 08:53:26;;;;;;;5.53;3.70;;;13.30;72.30;;;;;;5027340;28;20033;-59
2022/10/13 08:55:59;;;;;;;4.22;3.17;;;13.30;72.30;;;;;;5027320;28;20041;-58
2022/10/13 08:58:29;;;;;;;4.28;2.90;;;13.30;72.20;;;;;;5021967;28;20065;-58
2022/10/13 09:01:31;;;;;;;3.65;2.90;;;13.30;72.10;;;;;;5024030;28;20033;-59
2022/10/13 09:04:19;;;;;;;4.15;2.63;;;13.30;71.80;;;;;;5015411;28;20103;-59
2022/10/13 09:07:03;;;;;;;3.97;3.03;;;13.30;72.10;;;;;;5021967;28;20069;-56
2022/10/13 09:09:29;;;;;;;4.13;2.90;;;13.20;71.60;;;;;;5029053;28;20117;-58
2022/10/13 09:11:55;;;;;;;3.15;2.63;;;13.30;71.40;;;;;;5027446;28;20032;-58
2022/10/13 09:14:26;;;;;;;3.15;2.47;;;13.30;71.40;;;;;;5021418;28;20033;-58
2022/10/13 09:16:53;;;;;;;3.45;2.72;;;13.30;71.10;;;;;;5026811;28;20087;-57
2022/10/13 09:19:21;;;;;;;3.40;2.60;;;13.30;71.00;;;;;;5010256;28;20129;-57
2022/10/13 09:21:56;;;;;;;3.47;2.30;;;13.40;71.00;;;;;;5025270;28;20036;-57
2022/10/13 09:24:24;;;;;;;2.10;1.95;;;13.30;70.80;;;;;;5026819;28;20017;-58
2022/10/13 09:27:05;;;;;;;3.40;2.30;;;13.40;70.70;;;;;;5011852;28;20044;-59
2022/10/13 09:29:30;;;;;;;2.58;2.25;;;13.40;70.50;;;;;;5014401;28;20430;-59
2022/10/13 09:32:17;;;;;;;4.03;2.50;;;13.40;70.50;;;;;;5019698;28;20051;-58
2022/10/13 09:34:44;;;;;;;3.72;2.70;;;13.50;70.30;;;;;;5017301;28;21400;-59
2022/10/13 09:37:24;;;;;;;2.92;2.13;;;13.40;70.10;;;;;;5018205;28;20065;-58
2022/10/13 09:40:10;;;;;;;2.97;2.30;;;13.50;70.00;;;;;;5020630;28;20099;-59
2022/10/13 09:42:36;;;;;;;3.15;2.38;;;13.50;69.90;;;;;;5018973;28;20032;-57
2022/10/13 09:45:17;;;;;;;4.35;2.30;;;13.50;69.90;;;;;;5023404;28;20025;-57
2022/10/13 09:48:03;;;;;;;4.07;2.20;;;13.50;69.90;;;;;;5022863;28;20021;-58
2022/10/13 09:50:33;;;;;;;3.78;2.50;;;13.60;69.70;;;;;;5024429;28;20097;-57
2022/10/13 09:53:23;;;;;;;2.05;1.85;;;13.60;69.70;;;;;;5025837;28;20052;-59
2022/10/13 09:55:49;;;;;;;3.50;2.30;;;13.70;69.50;;;;;;5033021;28;20060;-60
2022/10/13 09:58:28;;;;;;;2.40;1.80;;;13.70;69.40;;;;;;5030475;28;20032;-57
2022/10/13 10:00:56;;;;;;;3.45;2.60;;;13.80;69.30;;;;;;5019051;28;20041;-60
2022/10/13 10:03:26;;;;;;;3.25;2.47;;;13.80;69.00;;;;;;5014824;28;20056;-60
2022/10/13 10:05:58;;;;;;;2.72;2.30;;;13.80;68.70;;;;;;5020642;28;20021;-59
2022/10/13 10:09:02;;;;;;;4.25;2.20;;;13.90;68.60;;;;;;5024584;28;20025;-58
2022/10/13 10:11:33;;;;;;;2.97;1.98;;;13.90;68.50;;;;;;5014321;28;20583;-59
2022/10/13 10:14:11;;;;;;;2.50;2.00;;;13.90;68.50;;;;;;5025092;28;20400;-59
2022/10/13 10:16:45;;;;;;;2.30;1.55;;;13.90;68.40;;;;;;5020716;28;20513;-56
2022/10/13 10:19:52;;;;;;;1.92;1.75;;;14.00;68.40;;;;;;5029850;28;20035;-59
2022/10/13 10:22:23;;;;;;;1.42;1.33;;;14.00;68.20;;;;;;4923806;28;20042;-59
2022/10/13 10:25:07;;;;;;;;;;;14.00;68.20;;;;;;5012904;28;20404;-58
2022/10/13 10:27:44;;;;;;;2.65;1.55;;;14.00;67.80;;;;;;5028102;28;19912;-58
2022/10/13 10:30:17;;;;;;;1.65;1.55;;;14.10;68.20;;;;;;5024224;28;20075;-58
2022/10/13 10:33:10;;;;;;;1.73;1.60;;;14.10;68.00;;;;;;5015004;28;20053;-61
2022/10/13 10:35:47;;;;;;;3.35;1.60;;;14.20;67.80;;;;;;5021420;28;20033;-57
2022/10/13 10:38:13;;;;;;;1.85;1.70;;;14.30;67.90;;;;;;5004770;28;20041;-60
2022/10/13 10:40:59;;;;;;;3.38;2.10;;;14.30;67.90;;;;;;5019159;28;20440;-59
2022/10/13 10:43:30;;;;;;;2.33;1.80;;;14.40;67.60;;;;;;5026594;28;20691;-59
2022/10/13 10:45:58;;;;;;;3.13;1.80;;;14.50;67.60;;;;;;5019485;28;20357;-58
2022/10/13 10:48:46;;;;;;;2.00;1.63;;;14.50;67.40;;;;;;5022314;28;20045;-58
2022/10/13 10:51:13;;;;;;;2.30;2.05;;;14.70;67.50;;;;;;5017290;28;20037;-58
2022/10/13 10:53:42;;;;;;;1.85;1.75;;;14.70;67.40;;;;;;5022550;28;20119;-57
2022/10/13 10:56:30;;;;;;;1.60;1.50;;;14.80;67.10;;;;;;5025952;28;20584;-59
2022/10/13 10:59:11;;;;;;;2.00;1.60;;;14.90;67.20;;;;;;5029087;28;20032;-59
2022/10/13 11:02:00;;;;;;;1.73;1.63;;;14.90;67.70;;;;;;5022259;28;20123;-59
2022/10/13 11:04:27;;;;;;;2.15;1.70;;;15.00;66.90;;;;;;5021367;28;20033;-57
2022/10/13 11:06:52;;;;;;;2.97;1.70;;;15.00;66.80;;;;;;5020224;28;20025;-60
2022/10/13 11:09:41;;;;;;;2.25;1.90;;;15.10;66.60;;;;;;5028402;28;20027;-60
2022/10/13 11:12:21;;;;;;;2.03;1.73;;;15.10;66.40;;;;;;5020741;28;20044;-58
2022/10/13 11:14:53;;;;;;;2.40;1.83;;;15.10;66.30;;;;;;5024075;28;20109;-57
2022/10/13 11:17:19;;;;;;;1.80;1.70;;;15.10;66.20;;;;;;5029475;28;20034;-58
2022/10/13 11:19:46;;;;;;;2.22;1.67;;;15.10;66.30;;;;;;5031763;28;20171;-57
2022/10/13 11:22:16;;;;;;;3.20;1.70;;;15.10;66.20;;;;;;5016838;28;20738;-58
2022/10/13 11:24:45;;;;;;;4.32;1.80;;;15.10;66.20;;;;;;5018296;28;20115;-59
2022/10/13 11:27:14;;;;;;;2.30;1.70;;;15.10;66.10;;;;;;5016444;28;20028;-59
2022/10/13 11:29:43;;;;;;;2.45;1.58;;;15.10;66.10;;;;;;5022102;28;20035;-59
2022/10/13 11:32:29;;;;;;;2.65;1.65;;;15.10;66.00;;;;;;5019800;28;22730;-60
2022/10/13 11:35:04;;;;;;;2.55;1.80;;;15.20;66.60;;;;;;5029264;28;20034;-57
2022/10/13 11:37:57;;;;;;;3.47;1.80;;;15.20;65.90;;;;;;5021908;28;20036;-59
2022/10/13 11:40:41;;;;;;;1.73;1.40;;;15.20;65.90;;;;;;5026254;28;20060;-59
2022/10/13 11:43:47;;;;;;;1.90;1.75;;;15.10;65.90;;;;;;5022095;28;20726;-59
2022/10/13 11:46:29;;;;;;;2.10;1.90;;;15.20;65.90;;;;;;5016464;28;20028;-58
2022/10/13 11:49:13;;;;;;;1.70;1.55;;;15.20;66.60;;;;;;5022929;28;20033;-57
2022/10/13 11:52:23;;;;;;;1.67;1.58;;;15.20;65.90;;;;;;5025970;28;20577;-56
2022/10/13 11:54:54;;;;;;;1.85;1.40;;;15.20;66.00;;;;;;5026600;28;20028;-58
2022/10/13 11:57:24;;;;;;;2.00;1.48;;;15.20;65.90;;;;;;5016212;28;20029;-58
2022/10/13 11:59:54;;;;;;;1.70;1.45;;;15.20;65.90;;;;;;5028888;28;20038;-57
2022/10/13 12:02:24;;;;;;;2.05;1.50;;;15.20;65.90;;;;;;5017477;28;20104;-59
2022/10/13 12:05:24;;;;;;;2.33;1.77;;;15.20;65.90;;;;;;5023916;28;20048;-58
2022/10/13 12:07:52;;;;;;;3.03;1.92;;;15.20;65.80;;;;;;5021040;28;20077;-58
2022/10/13 12:10:32;;;;;;;2.28;1.70;;;15.20;65.90;;;;;;5022870;28;20021;-57
2022/10/13 12:12:58;;;;;;;1.88;1.38;;;15.30;65.90;;;;;;5011071;28;20032;-59
2022/10/13 12:15:36;;;;;;;2.38;1.70;;;15.30;65.90;;;;;;5022896;28;20037;-59
2022/10/13 12:18:18;;;;;;;2.55;1.40;;;15.30;65.90;;;;;;5022978;28;20045;-56
2022/10/13 12:20:54;;;;;;;2.42;1.67;;;15.30;65.90;;;;;;5027601;28;20408;-59
2022/10/13 12:23:20;;;;;;;2.30;1.80;;;15.30;65.90;;;;;;5028465;28;20033;-58
2022/10/13 12:25:48;;;;;;;1.85;1.67;;;15.30;65.90;;;;;;5026870;28;20408;-56
2022/10/13 12:28:18;;;;;;;2.00;1.55;;;15.30;65.90;;;;;;5020016;28;20038;-58
2022/10/13 12:30:54;;;;;;;1.53;1.40;;;15.40;65.90;;;;;;5011310;28;20199;-57
2022/10/13 12:33:34;;;;;;;1.40;1.30;;;15.30;65.70;;;;;;5024712;28;20124;-57
2022/10/13 12:36:20;;;;;;;1.33;1.13;;;15.30;65.70;;;;;;5029265;28;20454;-58
2022/10/13 12:38:51;;;;;;;1.40;1.30;;;15.30;65.80;;;;;;5024563;28;20993;-57
2022/10/13 12:41:23;;;;;;;1.67;1.35;;;15.30;65.80;;;;;;5024383;28;20029;-57
2022/10/13 12:43:50;;;;;;;1.35;1.23;;;15.30;65.80;;;;;;5022359;28;20032;-57
2022/10/13 12:46:39;;;;;;;1.50;1.40;;;15.30;65.80;;;;;;5025868;28;20482;-57
2022/10/13 12:49:19;;;;;;;2.03;1.75;;;15.30;65.90;;;;;;5027331;28;20044;-59
2022/10/13 12:51:48;;;;;;;2.90;1.95;;;15.30;65.90;;;;;;5022125;28;20104;-58
2022/10/13 12:54:28;;;;;;;2.95;1.80;;;15.30;65.90;;;;;;5024334;28;21896;-58
2022/10/13 12:56:57;;;;;;;3.80;1.73;;;15.30;65.90;;;;;;5017114;28;20017;-57
2022/10/13 12:59:25;;;;;;;2.38;2.08;;;15.20;65.90;;;;;;5021079;28;20039;-58
2022/10/13 13:02:34;;;;;;;1.77;1.67;;;15.20;65.90;;;;;;5016621;28;20760;-57
2022/10/13 13:05:00;;;;;;;2.03;1.70;;;15.20;66.10;;;;;;5018293;28;20043;-59